createdAt,value
2022-10-28T00:01:24.923Z,158243.75
2022-10-28T00:03:57.932Z,158254.34
2022-10-28T00:06:29.123Z,158245.06
2022-10-28T00:08:57.437Z,158239.72
2022-10-28T00:11:28.079Z,158238.41
2022-10-28T00:13:57.821Z,158247.69
2022-10-28T00:16:29.442Z,158249.06
2022-10-28T00:18:59.651Z,158241.03
2022-10-28T00:21:30.840Z,158238.41
2022-10-28T00:23:59.600Z,158241.03
2022-10-28T00:26:30.760Z,158241.03
2022-10-28T00:29:01.633Z,158243.75
2022-10-28T00:31:31.299Z,158235.75
2022-10-28T00:34:00.318Z,158231.75
2022-10-28T00:36:34.579Z,158235.75
2022-10-28T00:39:05.158Z,158239.72
2022-10-28T00:41:38.169Z,158214.47
2022-10-28T00:44:46.762Z,158222.44
2022-10-28T00:47:28.430Z,158214.47
2022-10-28T00:50:00.420Z,158221.13
2022-10-28T00:52:30.068Z,158222.44
2022-10-28T00:55:00.348Z,158217.13
2022-10-28T00:57:32.612Z,158227.78
2022-10-28T01:00:01.870Z,158238.41
2022-10-28T01:02:30.500Z,158238.41
2022-10-28T01:04:58.770Z,158231.75
2022-10-28T01:07:27.161Z,158238.41
2022-10-28T01:09:55.012Z,158233.06
2022-10-28T01:12:54.066Z,158223.78
2022-10-28T01:15:27.608Z,158221.13
2022-10-28T01:18:01.321Z,158222.44
2022-10-28T01:20:45.326Z,158217.13
2022-10-28T01:23:47.714Z,158205.13
2022-10-28T01:26:34.235Z,158203.81
2022-10-28T01:29:20.823Z,158201.16
2022-10-28T01:31:55.326Z,158199.84
2022-10-28T01:34:31.900Z,158198.47
2022-10-28T01:37:38.741Z,158202.47
2022-10-28T01:40:24.211Z,158203.81
2022-10-28T01:42:59.784Z,158198.47
2022-10-28T01:45:34.518Z,158191.81
2022-10-28T01:48:09.133Z,158183.84
2022-10-28T01:50:58.646Z,158178.56
2022-10-28T01:53:32.136Z,158162.56
2022-10-28T01:56:04.371Z,158170.53
2022-10-28T01:58:33.446Z,158162.56
2022-10-28T02:01:05.548Z,158173.22
2022-10-28T02:03:34.149Z,158179.88
2022-10-28T02:06:07.891Z,158166.56
2022-10-28T02:08:45.220Z,158182.53
2022-10-28T02:11:22.063Z,158177.19
2022-10-28T02:14:21.279Z,158169.22
2022-10-28T02:17:13.539Z,158153.25
2022-10-28T02:19:48.170Z,158163.88
2022-10-28T02:22:23.754Z,158149.25
2022-10-28T02:25:08.278Z,158146.59
2022-10-28T02:27:55.443Z,158146.59
2022-10-28T02:30:30.342Z,158141.28
2022-10-28T02:33:01.803Z,158142.59
2022-10-28T02:36:18.915Z,158146.59
2022-10-28T02:38:52.481Z,158154.59
2022-10-28T02:41:24.374Z,158163.88
2022-10-28T02:43:56.054Z,158166.56
2022-10-28T02:46:25.823Z,158171.91
2022-10-28T02:48:55.460Z,158177.19
2022-10-28T02:51:30.724Z,158183.84
2022-10-28T02:54:18.389Z,158215.78
2022-10-28T02:56:52.802Z,158225.09
2022-10-28T02:59:20.769Z,158226.41
2022-10-28T03:01:48.582Z,158227.78
2022-10-28T03:04:16.958Z,158234.44
2022-10-28T03:06:44.711Z,158246.38
2022-10-28T03:09:12.610Z,158254.34
2022-10-28T03:11:40.327Z,158259.69
2022-10-28T03:14:10.722Z,158266.34
2022-10-28T03:16:41.014Z,158259.69
2022-10-28T03:21:42.792Z,158258.38
2022-10-28T03:24:10.972Z,158295.63
2022-10-28T03:26:38.731Z,158302.28
2022-10-28T03:29:07.083Z,158299.63
2022-10-28T03:31:34.799Z,158300.94
2022-10-28T03:34:02.941Z,158307.59
2022-10-28T03:36:30.689Z,158298.31
2022-10-28T03:38:58.980Z,158303.59
2022-10-28T03:41:26.672Z,158294.31
2022-10-28T03:43:54.951Z,158303.59
2022-10-28T03:46:22.518Z,158303.59
2022-10-28T03:48:50.806Z,158307.59
2022-10-28T03:51:18.666Z,158312.94
2022-10-28T03:53:48.312Z,158310.25
2022-10-28T03:56:16.199Z,158303.59
2022-10-28T03:58:44.712Z,158296.94
2022-10-28T04:01:12.606Z,158296.94
2022-10-28T04:03:41.202Z,158299.63
2022-10-28T04:06:10.189Z,158290.28
2022-10-28T04:08:38.848Z,158288.97
2022-10-28T04:11:07.303Z,158278.34
2022-10-28T04:13:36.054Z,158274.31
2022-10-28T04:16:04.639Z,158258.38
2022-10-28T04:18:32.850Z,158249.06
2022-10-28T04:21:00.915Z,158251.72
2022-10-28T04:23:29.738Z,158241.03
2022-10-28T04:25:57.690Z,158250.41
2022-10-28T04:28:26.142Z,158239.72
2022-10-28T04:30:54.205Z,158243.75
2022-10-28T04:33:22.664Z,158239.72
2022-10-28T04:35:50.591Z,158237.09
2022-10-28T04:38:18.633Z,158214.47
2022-10-28T04:40:49.915Z,158197.16
2022-10-28T04:43:17.944Z,158178.56
2022-10-28T04:45:47.330Z,158205.13
2022-10-28T04:48:15.879Z,158195.84
2022-10-28T04:50:44.264Z,158202.47
2022-10-28T04:53:12.714Z,158194.50
2022-10-28T04:55:40.694Z,158194.50
2022-10-28T04:58:10.678Z,158171.91
2022-10-28T05:00:38.457Z,158211.78
2022-10-28T05:03:06.644Z,158253.03
2022-10-28T05:05:35.013Z,158280.97
2022-10-28T05:08:03.383Z,158296.94
2022-10-28T05:10:32.034Z,158302.28
2022-10-28T05:13:00.611Z,158287.63
2022-10-28T05:15:28.491Z,158291.66
2022-10-28T05:17:56.658Z,158306.28
2022-10-28T05:20:24.911Z,158315.59
2022-10-28T05:22:55.380Z,158308.94
2022-10-28T05:25:24.408Z,158308.94
2022-10-28T05:27:52.922Z,158303.59
2022-10-28T05:30:20.842Z,158285.00
2022-10-28T05:32:51.560Z,158291.66
2022-10-28T05:35:22.363Z,158304.97
2022-10-28T05:37:50.808Z,158311.63
2022-10-28T05:40:19.030Z,158315.59
2022-10-28T05:42:47.373Z,158320.91
2022-10-28T05:45:15.364Z,158330.22
2022-10-28T05:47:47.908Z,158323.56
2022-10-28T05:50:18.291Z,158338.19
2022-10-28T05:52:50.986Z,158346.19
2022-10-28T05:55:20.681Z,158350.19
2022-10-28T05:57:50.478Z,158367.47
2022-10-28T06:00:20.968Z,158371.50
2022-10-28T06:02:49.014Z,158378.16
2022-10-28T06:05:17.424Z,158384.81
2022-10-28T06:07:45.640Z,158402.09
2022-10-28T06:10:13.773Z,158404.78
2022-10-28T06:12:42.521Z,158422.06
2022-10-28T06:15:10.491Z,158450.03
2022-10-28T06:17:39.005Z,158462.03
2022-10-28T06:20:07.250Z,158478.00
2022-10-28T06:22:35.819Z,158496.66
2022-10-28T06:25:04.410Z,158504.63
2022-10-28T06:27:34.615Z,158516.63
2022-10-28T06:30:03.104Z,158523.28
2022-10-28T06:32:31.817Z,158549.88
2022-10-28T06:34:59.648Z,158561.88
2022-10-28T06:37:28.223Z,158584.50
2022-10-28T06:39:57.919Z,158608.53
2022-10-28T06:42:26.651Z,158632.47
2022-10-28T06:44:54.492Z,158647.13
2022-10-28T06:47:24.617Z,158644.47
2022-10-28T06:49:52.501Z,158685.78
2022-10-28T06:52:20.763Z,158723.06
2022-10-28T06:54:48.583Z,158777.72
2022-10-28T06:57:16.591Z,158832.41
2022-10-28T06:59:45.106Z,158871.06
2022-10-28T07:02:21.946Z,158904.38
2022-10-28T07:04:50.081Z,158967.06
2022-10-28T07:07:18.515Z,158999.03
2022-10-28T07:09:47.218Z,159043.06
2022-10-28T07:12:15.290Z,159101.72
2022-10-28T07:14:43.179Z,159139.06
2022-10-28T07:17:11.012Z,159171.09
2022-10-28T07:19:39.166Z,159211.09
2022-10-28T07:22:07.036Z,159253.78
2022-10-28T07:24:35.724Z,159299.22
2022-10-28T07:27:03.730Z,159363.28
2022-10-28T07:29:32.238Z,159400.63
2022-10-28T07:32:00.301Z,159440.69
2022-10-28T07:34:28.704Z,159472.75
2022-10-28T07:36:57.418Z,159527.47
2022-10-28T07:39:25.555Z,159536.84
2022-10-28T07:41:53.430Z,159543.53
2022-10-28T07:44:21.576Z,159598.22
2022-10-28T07:46:51.914Z,159651.69
2022-10-28T07:49:21.234Z,159595.59
2022-10-28T07:51:51.221Z,159594.25
2022-10-28T07:54:19.411Z,159602.25
2022-10-28T07:56:47.270Z,159658.34
2022-10-28T07:59:16.241Z,159710.47
2022-10-28T08:01:44.044Z,159739.88
2022-10-28T08:04:12.500Z,159765.28
2022-10-28T08:06:40.595Z,159794.66
2022-10-28T08:09:08.754Z,159840.13
2022-10-28T08:11:36.818Z,159928.31
2022-10-28T08:14:05.736Z,159968.41
2022-10-28T08:16:33.587Z,159989.81
2022-10-28T08:19:07.474Z,160000.47
2022-10-28T08:21:35.752Z,160009.88
2022-10-28T08:24:04.549Z,160009.88
2022-10-28T08:26:32.383Z,160001.84
2022-10-28T08:29:01.731Z,159999.16
2022-10-28T08:31:32.735Z,160012.53
2022-10-28T08:34:00.931Z,160047.28
2022-10-28T08:36:28.861Z,160134.22
2022-10-28T08:38:59.485Z,160191.72
2022-10-28T08:41:45.989Z,160217.16
2022-10-28T08:44:14.331Z,160233.22
2022-10-28T08:46:57.978Z,160270.69
2022-10-28T08:49:26.730Z,160310.78
2022-10-28T08:52:05.315Z,160349.63
2022-10-28T08:54:42.514Z,160467.41
2022-10-28T08:57:18.119Z,160628.06
2022-10-28T08:59:47.614Z,160735.22
2022-10-28T09:02:24.220Z,160843.75
2022-10-28T09:05:15.894Z,160988.50
2022-10-28T09:07:43.770Z,161034.09
2022-10-28T09:10:39.385Z,161141.31
2022-10-28T09:13:31.715Z,161264.69
2022-10-28T09:16:17.830Z,161194.91
2022-10-28T09:18:52.531Z,161075.59
2022-10-28T09:21:34.078Z,161141.31
2022-10-28T09:24:14.635Z,161158.72
2022-10-28T09:27:17.780Z,161134.59
2022-10-28T09:30:41.584Z,161086.34
2022-10-28T09:33:22.416Z,161030.03
2022-10-28T09:35:51.746Z,160964.34
2022-10-28T09:38:35.280Z,160871.91
2022-10-28T09:41:26.168Z,160782.13
2022-10-28T09:44:31.293Z,160755.31
2022-10-28T09:47:01.423Z,160740.59
2022-10-28T09:49:32.049Z,160748.63
2022-10-28T09:52:08.550Z,160763.34
2022-10-28T09:54:42.796Z,160792.88
2022-10-28T09:57:13.721Z,160762.03
2022-10-28T09:59:44.540Z,160749.97
2022-10-28T10:02:39.006Z,160791.47
2022-10-28T10:05:16.822Z,160783.44
2022-10-28T10:08:05.763Z,160799.50
2022-10-28T10:10:48.659Z,160784.78
2022-10-28T10:13:23.056Z,160834.34
2022-10-28T10:15:53.644Z,160831.69
2022-10-28T10:18:31.270Z,160829.03
2022-10-28T10:21:00.185Z,160837.06
2022-10-28T10:23:36.337Z,160831.69
2022-10-28T10:26:22.064Z,160833.00
2022-10-28T10:28:51.531Z,160871.91
2022-10-28T10:31:39.497Z,160873.22
2022-10-28T10:34:27.868Z,160875.88
2022-10-28T10:36:56.647Z,160905.34
2022-10-28T10:39:42.932Z,160956.31
2022-10-28T10:42:29.450Z,160941.56
2022-10-28T10:45:27.842Z,160984.50
2022-10-28T10:48:16.253Z,161011.25
2022-10-28T10:50:46.105Z,161036.75
2022-10-28T10:53:26.549Z,161017.97
2022-10-28T10:55:59.536Z,161034.09
2022-10-28T10:58:52.168Z,161048.81
2022-10-28T11:01:23.902Z,161085.00
2022-10-28T11:04:17.816Z,161097.09
2022-10-28T11:06:50.481Z,161123.84
2022-10-28T11:09:37.477Z,161164.09
2022-10-28T11:12:26.578Z,161201.59
2022-10-28T11:15:20.114Z,161212.34
2022-10-28T11:18:17.495Z,161216.34
2022-10-28T11:20:54.256Z,161237.84
2022-10-28T11:23:51.176Z,161248.59
2022-10-28T11:26:43.687Z,161253.97
2022-10-28T11:29:16.315Z,161308.94
2022-10-28T11:31:55.932Z,161314.31
2022-10-28T11:34:40.484Z,161325.06
2022-10-28T11:37:29.782Z,161338.47
2022-10-28T11:40:22.853Z,161363.94
2022-10-28T11:43:22.509Z,161370.63
2022-10-28T11:46:03.842Z,161326.38
2022-10-28T11:49:02.231Z,161354.56
2022-10-28T11:52:18.010Z,161404.19
2022-10-28T11:54:59.609Z,161421.59
2022-10-28T11:58:07.002Z,161409.56
2022-10-28T12:00:41.565Z,161414.88
2022-10-28T12:03:47.422Z,161405.50
2022-10-28T12:06:23.594Z,161405.50
2022-10-28T12:09:10.446Z,161418.94
2022-10-28T12:12:25.771Z,161408.19
2022-10-28T12:15:15.254Z,161432.34
2022-10-28T12:18:06.561Z,161441.72
2022-10-28T12:21:17.852Z,161460.53
2022-10-28T12:23:45.755Z,161480.66
2022-10-28T12:26:16.213Z,161482.00
2022-10-28T12:29:04.408Z,161486.00
2022-10-28T12:31:44.598Z,161514.22
2022-10-28T12:34:16.599Z,161534.34
2022-10-28T12:36:45.118Z,161522.31
2022-10-28T12:39:57.096Z,161514.22
2022-10-28T12:42:46.678Z,161499.47
2022-10-28T12:45:18.436Z,161504.84
2022-10-28T12:47:50.767Z,161504.84
2022-10-28T12:50:40.477Z,161533.00
2022-10-28T12:54:04.229Z,161524.97
2022-10-28T12:56:37.415Z,161545.09
2022-10-28T12:59:28.230Z,161527.63
2022-10-28T13:01:56.856Z,161524.97
2022-10-28T13:04:24.788Z,161512.88
2022-10-28T13:07:22.785Z,161499.47
2022-10-28T13:09:57.519Z,161533.00
2022-10-28T13:12:48.747Z,161541.06
2022-10-28T13:15:46.164Z,161515.59
2022-10-28T13:18:29.376Z,161506.16
2022-10-28T13:21:18.467Z,161502.16
2022-10-28T13:24:25.345Z,161499.47
2022-10-28T13:26:54.799Z,161479.31
2022-10-28T13:29:43.549Z,161477.94
2022-10-28T13:32:38.358Z,161459.19
2022-10-28T13:35:12.962Z,161448.44
2022-10-28T13:37:41.697Z,161437.72
2022-10-28T13:40:30.815Z,161418.94
2022-10-28T13:43:22.043Z,161381.38
2022-10-28T13:45:56.064Z,161351.88
2022-10-28T13:48:29.857Z,161337.09
2022-10-28T13:51:10.347Z,161322.34
2022-10-28T13:53:54.699Z,161298.22
2022-10-28T13:56:41.558Z,161268.72
2022-10-28T13:59:14.986Z,161247.28
2022-10-28T14:02:02.008Z,161219.06
2022-10-28T14:05:00.562Z,161200.28
2022-10-28T14:07:32.032Z,161197.63
2022-10-28T14:10:24.334Z,161182.88
2022-10-28T14:12:59.624Z,161169.47
2022-10-28T14:15:48.519Z,161133.28
2022-10-28T14:18:42.318Z,161089.00
2022-10-28T14:21:08.465Z,161044.78
2022-10-28T14:23:50.149Z,161030.03
2022-10-28T14:27:15.936Z,160989.81
2022-10-28T14:30:09.110Z,160968.34
2022-10-28T14:33:01.910Z,160945.56
2022-10-28T14:35:49.970Z,160909.38
2022-10-28T14:38:36.756Z,160901.34
2022-10-28T14:41:35.867Z,160893.31
2022-10-28T14:44:06.329Z,160874.53
2022-10-28T14:47:03.313Z,160866.50
2022-10-28T14:49:32.290Z,160863.88
2022-10-28T14:52:18.947Z,160867.84
2022-10-28T14:54:51.152Z,160853.13
2022-10-28T14:57:37.499Z,160849.06
2022-10-28T15:00:07.476Z,160850.44
2022-10-28T15:02:39.127Z,160842.44
2022-10-28T15:05:18.509Z,160850.44
2022-10-28T15:07:47.363Z,160826.31
2022-10-28T15:10:39.313Z,160814.28
2022-10-28T15:13:17.056Z,160824.97
2022-10-28T15:15:59.485Z,160811.59
2022-10-28T15:18:50.996Z,160796.84
2022-10-28T15:21:21.712Z,160788.81
2022-10-28T15:24:03.213Z,160770.06
2022-10-28T15:26:31.203Z,160778.09
2022-10-28T15:28:59.611Z,160758.03
2022-10-28T15:31:28.136Z,160759.38
2022-10-28T15:34:21.706Z,160748.63
2022-10-28T15:36:50.452Z,160744.63
2022-10-28T15:39:19.103Z,160745.97
2022-10-28T15:42:27.258Z,160732.56
2022-10-28T15:44:57.055Z,160733.91
2022-10-28T15:47:45.482Z,160703.13
2022-10-28T15:50:32.806Z,160719.16
2022-10-28T15:53:10.242Z,160723.22
2022-10-28T15:56:06.984Z,160721.81
2022-10-28T15:58:36.121Z,160737.94
2022-10-28T16:01:05.280Z,160727.19
2022-10-28T16:03:47.563Z,160732.56
2022-10-28T16:06:24.293Z,160723.22
2022-10-28T16:09:19.429Z,160717.84
2022-10-28T16:11:58.009Z,160727.19
2022-10-28T16:15:03.187Z,160729.91
2022-10-28T16:17:34.069Z,160712.47
2022-10-28T16:20:18.324Z,160735.22
2022-10-28T16:22:48.841Z,160720.50
2022-10-28T16:25:20.814Z,160736.59
2022-10-28T16:27:50.554Z,160725.88
2022-10-28T16:30:19.179Z,160731.25
2022-10-28T16:32:49.162Z,160737.94
2022-10-28T16:35:22.006Z,160740.59
2022-10-28T16:37:55.051Z,160736.59
2022-10-28T16:40:52.677Z,160760.69
2022-10-28T16:43:31.121Z,160763.34
2022-10-28T16:46:00.791Z,160766.06
2022-10-28T16:48:30.698Z,160755.31
2022-10-28T16:51:10.826Z,160759.38
2022-10-28T16:53:39.239Z,160766.06
2022-10-28T16:56:13.618Z,160759.38
2022-10-28T16:58:43.052Z,160770.06
2022-10-28T17:01:12.760Z,160767.41
2022-10-28T17:03:40.645Z,160743.31
2022-10-28T17:06:10.602Z,160758.03
2022-10-28T17:11:26.883Z,160739.28
2022-10-28T17:13:54.735Z,160732.56
2022-10-28T17:16:22.958Z,160716.50
2022-10-28T17:18:50.679Z,160713.81
2022-10-28T17:21:18.961Z,160705.78
2022-10-28T17:23:47.137Z,160695.09
2022-10-28T17:26:33.234Z,160682.97
2022-10-28T17:29:01.585Z,160668.25
2022-10-28T17:31:30.058Z,160646.81
2022-10-28T17:34:16.168Z,160636.09
2022-10-28T17:36:44.694Z,160628.06
2022-10-28T17:39:17.775Z,160617.38
2022-10-28T17:41:48.429Z,160603.97
2022-10-28T17:44:34.854Z,160578.50
2022-10-28T17:47:03.175Z,160577.19
2022-10-28T17:49:49.305Z,160562.47
2022-10-28T17:52:17.468Z,160579.84
2022-10-28T17:55:03.385Z,160561.13
2022-10-28T17:57:31.686Z,160575.88
2022-10-28T17:59:59.879Z,160551.72
2022-10-28T18:02:28.114Z,160559.81
2022-10-28T18:04:55.937Z,160549.06
2022-10-28T18:07:24.157Z,160538.41
2022-10-28T18:09:52.116Z,160523.63
2022-10-28T18:12:20.629Z,160510.28
2022-10-28T18:14:48.434Z,160502.22
2022-10-28T18:17:18.133Z,160498.22
2022-10-28T18:19:45.876Z,160499.53
2022-10-28T18:22:14.660Z,160490.19
2022-10-28T18:24:42.532Z,160480.78
2022-10-28T18:27:11.155Z,160475.47
2022-10-28T18:29:39.416Z,160466.06
2022-10-28T18:32:07.312Z,160454.06
2022-10-28T18:34:35.943Z,160442.00
2022-10-28T18:37:07.910Z,160437.97
2022-10-28T18:39:36.227Z,160423.25
2022-10-28T18:42:04.633Z,160437.97
2022-10-28T18:44:32.425Z,160439.34
2022-10-28T18:47:00.975Z,160437.97
2022-10-28T18:49:28.601Z,160437.97
2022-10-28T18:51:56.932Z,160443.34
2022-10-28T18:54:43.042Z,160443.34
2022-10-28T18:57:11.174Z,160437.97
2022-10-28T18:59:52.420Z,160429.94
2022-10-28T19:02:29.067Z,160444.66
2022-10-28T19:04:58.613Z,160467.41
2022-10-28T19:07:26.661Z,160467.41
2022-10-28T19:09:55.183Z,160476.81
2022-10-28T19:12:23.051Z,160508.91
2022-10-28T19:14:51.594Z,160510.28
2022-10-28T19:17:20.487Z,160506.25
2022-10-28T19:19:49.473Z,160508.91
2022-10-28T19:22:18.929Z,160507.56
2022-10-28T19:24:47.528Z,160500.88
2022-10-28T19:27:16.101Z,160511.59
2022-10-28T19:30:06.576Z,160510.28
2022-10-28T19:32:39.232Z,160506.25
2022-10-28T19:35:07.880Z,160499.53
2022-10-28T19:37:36.588Z,160498.22
2022-10-28T19:40:05.287Z,160498.22
2022-10-28T19:42:33.598Z,160494.19
2022-10-28T19:45:04.012Z,160488.88
2022-10-28T19:47:32.567Z,160475.47
2022-10-28T19:50:00.476Z,160463.41
2022-10-28T19:52:28.964Z,160451.34
2022-10-28T19:54:57.625Z,160442.00
2022-10-28T19:57:45.682Z,160431.28
2022-10-28T20:00:16.051Z,160417.88
2022-10-28T20:02:43.985Z,160397.84
2022-10-28T20:05:12.665Z,160384.47
2022-10-28T20:07:41.235Z,160373.69
2022-10-28T20:10:10.258Z,160356.31
2022-10-28T20:12:38.454Z,160333.59
2022-10-28T20:15:08.138Z,160318.81
2022-10-28T20:17:36.835Z,160304.09
2022-10-28T20:20:05.554Z,160286.75
2022-10-28T20:22:51.964Z,160265.34
2022-10-28T20:25:20.037Z,160231.88
2022-10-28T20:27:49.833Z,160233.22
2022-10-28T20:30:18.216Z,160219.81
2022-10-28T20:32:49.720Z,160219.81
2022-10-28T20:35:21.100Z,160229.22
2022-10-28T20:37:54.194Z,160262.63
2022-10-28T20:40:22.675Z,160293.44
2022-10-28T20:42:50.846Z,160296.09
2022-10-28T20:45:18.770Z,160290.72
2022-10-28T20:47:47.422Z,160330.88
2022-10-28T20:50:15.231Z,160344.25
2022-10-28T20:52:43.378Z,160336.25
2022-10-28T20:55:29.320Z,160357.66
2022-10-28T20:57:57.429Z,160348.28
2022-10-28T21:00:25.649Z,160349.63
2022-10-28T21:02:55.041Z,160350.94
2022-10-28T21:05:23.375Z,160348.28
2022-10-28T21:08:10.633Z,160342.94
2022-10-28T21:10:40.253Z,160344.25
2022-10-28T21:13:09.146Z,160345.59
2022-10-28T21:15:39.053Z,160336.25
2022-10-28T21:18:08.419Z,160330.88
2022-10-28T21:20:37.715Z,160320.19
2022-10-28T21:23:06.676Z,160340.22
2022-10-28T21:25:34.680Z,160340.22
2022-10-28T21:28:02.542Z,160342.94
2022-10-28T21:30:30.941Z,160345.59
2022-10-28T21:32:58.841Z,160353.59
2022-10-28T21:35:27.569Z,160340.22
2022-10-28T21:37:56.719Z,160337.56
2022-10-28T21:40:25.200Z,160329.53
2022-10-28T21:42:53.673Z,160333.59
2022-10-28T21:45:39.587Z,160313.50
2022-10-28T21:48:26.599Z,160304.09
2022-10-28T21:51:15.172Z,160296.09
2022-10-28T21:53:45.010Z,160294.75
2022-10-28T21:56:18.107Z,160297.41
2022-10-28T21:58:49.095Z,160285.41
2022-10-28T22:01:25.689Z,160278.72
2022-10-28T22:04:12.397Z,160274.69
2022-10-28T22:06:40.875Z,160273.34
2022-10-28T22:09:08.877Z,160261.28
2022-10-28T22:11:37.455Z,160251.94
2022-10-28T22:14:23.247Z,160253.28
2022-10-28T22:16:51.615Z,160239.91
2022-10-28T22:19:19.750Z,160234.59
2022-10-28T22:22:05.864Z,160226.50
2022-10-28T22:24:34.355Z,160238.56
2022-10-28T22:27:02.335Z,160243.94
2022-10-28T22:29:48.124Z,160241.22
2022-10-28T22:32:35.201Z,160229.22
2022-10-28T22:35:03.824Z,160250.63
2022-10-28T22:37:31.646Z,160258.63
2022-10-28T22:39:59.674Z,160264.00
2022-10-28T22:42:27.997Z,160270.69
2022-10-28T22:44:55.872Z,160269.31
2022-10-28T22:47:24.502Z,160278.72
2022-10-28T22:49:52.294Z,160297.41
2022-10-28T22:52:20.533Z,160285.41
2022-10-28T22:55:07.464Z,160313.50
2022-10-28T22:57:36.133Z,160328.22
2022-10-28T23:00:04.950Z,160337.56
2022-10-28T23:02:51.401Z,160312.19
2022-10-28T23:05:19.978Z,160322.84
2022-10-28T23:07:47.835Z,160328.22
2022-10-28T23:10:34.298Z,160333.59
2022-10-28T23:13:03.114Z,160325.50
2022-10-28T23:15:30.874Z,160317.50
2022-10-28T23:17:58.934Z,160321.53
2022-10-28T23:20:45.157Z,160318.81
2022-10-28T23:23:13.874Z,160308.13
2022-10-28T23:25:41.717Z,160305.47
2022-10-28T23:28:27.441Z,160294.75
2022-10-28T23:31:17.641Z,160286.75
2022-10-28T23:33:45.720Z,160277.38
2022-10-28T23:36:35.034Z,160259.97
2022-10-28T23:39:03.561Z,160243.94
2022-10-28T23:41:31.586Z,160226.50
2022-10-28T23:44:01.022Z,160210.47
2022-10-28T23:46:32.310Z,160198.41
2022-10-28T23:49:02.725Z,160186.41
2022-10-28T23:51:31.231Z,160186.41
2022-10-28T23:53:59.180Z,160174.38
2022-10-28T23:56:26.976Z,160173.03
2022-10-28T23:58:55.203Z,160165.03
